sensor_id;sensor_type;location;lat;lon;timestamp;P1;durP1;ratioP1;P2;durP2;ratioP2
8281;SDS011;25606;42.686;23.136;2023-07-13T00:00:30;5.67;;;4.00;;
8281;SDS011;25606;42.686;23.136;2023-07-13T00:02:58;5.67;;;3.80;;
8281;SDS011;25606;42.686;23.136;2023-07-13T00:05:26;4.50;;;3.80;;
8281;SDS011;25606;42.686;23.136;2023-07-13T00:07:54;5.40;;;3.90;;
8281;SDS011;25606;42.686;23.136;2023-07-13T00:10:21;4.93;;;3.80;;
8281;SDS011;25606;42.686;23.136;2023-07-13T00:12:48;4.23;;;3.40;;
8281;SDS011;25606;42.686;23.136;2023-07-13T00:15:17;4.70;;;4.07;;
8281;SDS011;25606;42.686;23.136;2023-07-13T00:17:48;5.43;;;4.30;;
8281;SDS011;25606;42.686;23.136;2023-07-13T00:20:15;4.10;;;3.70;;
8281;SDS011;25606;42.686;23.136;2023-07-13T00:22:44;6.37;;;3.70;;
8281;SDS011;25606;42.686;23.136;2023-07-13T00:25:11;6.70;;;4.17;;
8281;SDS011;25606;42.686;23.136;2023-07-13T00:27:38;5.20;;;4.20;;
8281;SDS011;25606;42.686;23.136;2023-07-13T00:30:05;3.97;;;3.60;;
8281;SDS011;25606;42.686;23.136;2023-07-13T00:32:34;6.50;;;3.83;;
8281;SDS011;25606;42.686;23.136;2023-07-13T00:35:01;4.37;;;3.70;;
8281;SDS011;25606;42.686;23.136;2023-07-13T00:37:29;5.00;;;3.87;;
8281;SDS011;25606;42.686;23.136;2023-07-13T00:39:58;4.97;;;3.63;;
8281;SDS011;25606;42.686;23.136;2023-07-13T00:42:25;5.83;;;4.07;;
8281;SDS011;25606;42.686;23.136;2023-07-13T00:45:03;6.40;;;4.23;;
8281;SDS011;25606;42.686;23.136;2023-07-13T00:47:31;5.23;;;3.93;;
8281;SDS011;25606;42.686;23.136;2023-07-13T00:49:58;5.03;;;3.93;;
8281;SDS011;25606;42.686;23.136;2023-07-13T00:52:26;5.65;;;4.32;;
8281;SDS011;25606;42.686;23.136;2023-07-13T00:54:54;8.32;;;4.63;;
8281;SDS011;25606;42.686;23.136;2023-07-13T00:57:23;5.97;;;4.23;;
8281;SDS011;25606;42.686;23.136;2023-07-13T00:59:52;7.68;;;5.28;;
8281;SDS011;25606;42.686;23.136;2023-07-13T01:02:19;6.32;;;4.18;;
8281;SDS011;25606;42.686;23.136;2023-07-13T01:04:47;6.22;;;4.47;;
8281;SDS011;25606;42.686;23.136;2023-07-13T01:07:14;7.30;;;4.40;;
8281;SDS011;25606;42.686;23.136;2023-07-13T01:09:41;6.43;;;4.68;;
8281;SDS011;25606;42.686;23.136;2023-07-13T01:12:10;8.43;;;4.95;;
8281;SDS011;25606;42.686;23.136;2023-07-13T01:14:40;6.70;;;4.63;;
8281;SDS011;25606;42.686;23.136;2023-07-13T01:17:08;8.45;;;5.07;;
8281;SDS011;25606;42.686;23.136;2023-07-13T01:19:36;6.68;;;4.70;;
8281;SDS011;25606;42.686;23.136;2023-07-13T01:22:06;8.27;;;5.60;;
8281;SDS011;25606;42.686;23.136;2023-07-13T01:24:36;10.35;;;5.45;;
8281;SDS011;25606;42.686;23.136;2023-07-13T01:27:04;8.23;;;4.65;;
8281;SDS011;25606;42.686;23.136;2023-07-13T01:29:32;10.63;;;5.68;;
8281;SDS011;25606;42.686;23.136;2023-07-13T01:32:00;7.72;;;5.03;;
8281;SDS011;25606;42.686;23.136;2023-07-13T01:34:27;7.13;;;4.78;;
8281;SDS011;25606;42.686;23.136;2023-07-13T01:36:55;8.55;;;5.43;;
8281;SDS011;25606;42.686;23.136;2023-07-13T01:39:23;7.85;;;5.40;;
8281;SDS011;25606;42.686;23.136;2023-07-13T01:41:51;6.53;;;4.78;;
8281;SDS011;25606;42.686;23.136;2023-07-13T01:44:18;6.05;;;4.80;;
8281;SDS011;25606;42.686;23.136;2023-07-13T01:46:45;8.32;;;5.55;;
8281;SDS011;25606;42.686;23.136;2023-07-13T01:49:13;6.75;;;4.85;;
8281;SDS011;25606;42.686;23.136;2023-07-13T01:51:40;7.97;;;5.55;;
8281;SDS011;25606;42.686;23.136;2023-07-13T01:54:07;6.15;;;4.88;;
8281;SDS011;25606;42.686;23.136;2023-07-13T01:56:36;7.80;;;5.13;;
8281;SDS011;25606;42.686;23.136;2023-07-13T01:59:04;6.60;;;4.87;;
8281;SDS011;25606;42.686;23.136;2023-07-13T02:01:32;5.80;;;5.07;;
8281;SDS011;25606;42.686;23.136;2023-07-13T02:03:59;7.07;;;4.70;;
8281;SDS011;25606;42.686;23.136;2023-07-13T02:06:26;6.13;;;5.13;;
8281;SDS011;25606;42.686;23.136;2023-07-13T02:08:54;5.77;;;5.00;;
8281;SDS011;25606;42.686;23.136;2023-07-13T02:11:21;5.13;;;4.67;;
8281;SDS011;25606;42.686;23.136;2023-07-13T02:13:51;7.03;;;5.67;;
8281;SDS011;25606;42.686;23.136;2023-07-13T02:16:18;5.70;;;4.53;;
8281;SDS011;25606;42.686;23.136;2023-07-13T02:18:45;5.77;;;5.00;;
8281;SDS011;25606;42.686;23.136;2023-07-13T02:21:13;6.80;;;5.10;;
8281;SDS011;25606;42.686;23.136;2023-07-13T02:23:40;5.80;;;5.23;;
8281;SDS011;25606;42.686;23.136;2023-07-13T02:26:07;5.57;;;4.67;;
8281;SDS011;25606;42.686;23.136;2023-07-13T02:28:35;6.97;;;5.10;;
8281;SDS011;25606;42.686;23.136;2023-07-13T02:31:07;6.30;;;5.20;;
8281;SDS011;25606;42.686;23.136;2023-07-13T02:33:34;6.50;;;5.10;;
8281;SDS011;25606;42.686;23.136;2023-07-13T02:36:02;7.60;;;5.57;;
8281;SDS011;25606;42.686;23.136;2023-07-13T02:38:30;10.40;;;5.70;;
8281;SDS011;25606;42.686;23.136;2023-07-13T02:40:58;12.60;;;6.60;;
8281;SDS011;25606;42.686;23.136;2023-07-13T02:43:26;15.07;;;6.23;;
8281;SDS011;25606;42.686;23.136;2023-07-13T02:45:54;10.27;;;6.37;;
8281;SDS011;25606;42.686;23.136;2023-07-13T02:48:27;10.70;;;5.97;;
8281;SDS011;25606;42.686;23.136;2023-07-13T02:50:54;10.07;;;6.03;;
8281;SDS011;25606;42.686;23.136;2023-07-13T02:53:21;6.83;;;5.67;;
8281;SDS011;25606;42.686;23.136;2023-07-13T02:55:48;7.83;;;5.97;;
8281;SDS011;25606;42.686;23.136;2023-07-13T02:58:16;7.23;;;5.93;;
8281;SDS011;25606;42.686;23.136;2023-07-13T03:00:43;8.87;;;5.50;;
8281;SDS011;25606;42.686;23.136;2023-07-13T03:03:11;9.77;;;6.00;;
8281;SDS011;25606;42.686;23.136;2023-07-13T03:05:41;7.47;;;5.83;;
8281;SDS011;25606;42.686;23.136;2023-07-13T03:08:09;7.07;;;5.73;;
8281;SDS011;25606;42.686;23.136;2023-07-13T03:10:37;6.97;;;6.07;;
8281;SDS011;25606;42.686;23.136;2023-07-13T03:13:04;12.80;;;6.43;;
8281;SDS011;25606;42.686;23.136;2023-07-13T03:15:32;9.47;;;6.47;;
8281;SDS011;25606;42.686;23.136;2023-07-13T03:17:59;8.83;;;6.70;;
8281;SDS011;25606;42.686;23.136;2023-07-13T03:20:26;9.03;;;6.80;;
8281;SDS011;25606;42.686;23.136;2023-07-13T03:22:55;7.80;;;5.73;;
8281;SDS011;25606;42.686;23.136;2023-07-13T03:25:22;8.60;;;6.30;;
8281;SDS011;25606;42.686;23.136;2023-07-13T03:27:50;10.63;;;6.60;;
8281;SDS011;25606;42.686;23.136;2023-07-13T03:30:17;10.43;;;6.60;;
8281;SDS011;25606;42.686;23.136;2023-07-13T03:32:46;10.40;;;6.90;;
8281;SDS011;25606;42.686;23.136;2023-07-13T03:35:16;10.80;;;6.60;;
8281;SDS011;25606;42.686;23.136;2023-07-13T03:37:47;8.67;;;6.70;;
8281;SDS011;25606;42.686;23.136;2023-07-13T03:40:16;10.00;;;6.67;;
8281;SDS011;25606;42.686;23.136;2023-07-13T03:42:43;10.97;;;6.43;;
8281;SDS011;25606;42.686;23.136;2023-07-13T03:45:11;8.00;;;6.17;;
8281;SDS011;25606;42.686;23.136;2023-07-13T03:47:38;9.33;;;6.50;;
8281;SDS011;25606;42.686;23.136;2023-07-13T03:50:07;8.77;;;6.60;;
8281;SDS011;25606;42.686;23.136;2023-07-13T03:52:34;8.07;;;6.77;;
8281;SDS011;25606;42.686;23.136;2023-07-13T03:55:05;8.33;;;6.30;;
8281;SDS011;25606;42.686;23.136;2023-07-13T03:57:34;9.63;;;6.47;;
8281;SDS011;25606;42.686;23.136;2023-07-13T04:00:02;7.77;;;6.60;;
8281;SDS011;25606;42.686;23.136;2023-07-13T04:04:58;8.60;;;7.07;;
8281;SDS011;25606;42.686;23.136;2023-07-13T04:07:25;8.57;;;7.10;;
8281;SDS011;25606;42.686;23.136;2023-07-13T04:09:52;8.53;;;6.73;;
8281;SDS011;25606;42.686;23.136;2023-07-13T04:12:20;10.23;;;7.07;;
8281;SDS011;25606;42.686;23.136;2023-07-13T04:14:48;8.00;;;7.20;;
8281;SDS011;25606;42.686;23.136;2023-07-13T04:17:16;7.50;;;6.80;;
8281;SDS011;25606;42.686;23.136;2023-07-13T04:19:43;10.90;;;7.47;;
8281;SDS011;25606;42.686;23.136;2023-07-13T04:22:10;10.23;;;6.80;;
8281;SDS011;25606;42.686;23.136;2023-07-13T04:24:37;12.50;;;6.93;;
8281;SDS011;25606;42.686;23.136;2023-07-13T04:27:06;9.67;;;7.43;;
8281;SDS011;25606;42.686;23.136;2023-07-13T04:29:33;10.87;;;7.53;;
8281;SDS011;25606;42.686;23.136;2023-07-13T04:32:02;10.07;;;7.70;;
8281;SDS011;25606;42.686;23.136;2023-07-13T04:34:29;13.47;;;7.63;;
8281;SDS011;25606;42.686;23.136;2023-07-13T04:36:56;9.00;;;7.80;;
8281;SDS011;25606;42.686;23.136;2023-07-13T04:39:24;11.60;;;7.73;;
8281;SDS011;25606;42.686;23.136;2023-07-13T04:41:51;10.00;;;7.17;;
8281;SDS011;25606;42.686;23.136;2023-07-13T04:44:20;11.67;;;7.47;;
8281;SDS011;25606;42.686;23.136;2023-07-13T04:46:47;11.73;;;7.17;;
8281;SDS011;25606;42.686;23.136;2023-07-13T04:49:16;12.13;;;7.30;;
8281;SDS011;25606;42.686;23.136;2023-07-13T04:51:43;12.77;;;7.73;;
8281;SDS011;25606;42.686;23.136;2023-07-13T04:54:10;10.97;;;7.77;;
8281;SDS011;25606;42.686;23.136;2023-07-13T04:56:38;10.37;;;7.70;;
8281;SDS011;25606;42.686;23.136;2023-07-13T04:59:05;12.30;;;7.87;;
8281;SDS011;25606;42.686;23.136;2023-07-13T05:01:32;10.27;;;7.47;;
8281;SDS011;25606;42.686;23.136;2023-07-13T05:04:00;9.27;;;7.73;;
8281;SDS011;25606;42.686;23.136;2023-07-13T05:06:28;11.67;;;8.07;;
8281;SDS011;25606;42.686;23.136;2023-07-13T05:08:56;11.03;;;7.90;;
8281;SDS011;25606;42.686;23.136;2023-07-13T05:11:23;12.60;;;8.20;;
8281;SDS011;25606;42.686;23.136;2023-07-13T05:13:51;13.40;;;8.57;;
8281;SDS011;25606;42.686;23.136;2023-07-13T05:16:18;17.08;;;7.70;;
8281;SDS011;25606;42.686;23.136;2023-07-13T05:18:46;18.35;;;8.52;;
8281;SDS011;25606;42.686;23.136;2023-07-13T05:21:13;15.35;;;8.43;;
8281;SDS011;25606;42.686;23.136;2023-07-13T05:23:42;12.10;;;8.20;;
8281;SDS011;25606;42.686;23.136;2023-07-13T05:26:09;12.90;;;8.25;;
8281;SDS011;25606;42.686;23.136;2023-07-13T05:28:36;16.08;;;8.98;;
8281;SDS011;25606;42.686;23.136;2023-07-13T05:31:04;14.02;;;9.48;;
8281;SDS011;25606;42.686;23.136;2023-07-13T05:33:32;13.38;;;8.73;;
8281;SDS011;25606;42.686;23.136;2023-07-13T05:35:59;12.43;;;8.02;;
8281;SDS011;25606;42.686;23.136;2023-07-13T05:38:26;15.20;;;8.90;;
8281;SDS011;25606;42.686;23.136;2023-07-13T05:40:55;12.52;;;8.50;;
8281;SDS011;25606;42.686;23.136;2023-07-13T05:43:23;14.05;;;8.68;;
8281;SDS011;25606;42.686;23.136;2023-07-13T05:45:52;12.65;;;8.57;;
8281;SDS011;25606;42.686;23.136;2023-07-13T05:48:19;15.50;;;8.82;;
8281;SDS011;25606;42.686;23.136;2023-07-13T05:50:47;15.35;;;8.90;;
8281;SDS011;25606;42.686;23.136;2023-07-13T05:53:14;12.68;;;8.85;;
8281;SDS011;25606;42.686;23.136;2023-07-13T05:55:42;17.38;;;9.40;;
8281;SDS011;25606;42.686;23.136;2023-07-13T05:58:10;14.65;;;8.18;;
8281;SDS011;25606;42.686;23.136;2023-07-13T06:00:38;13.60;;;8.15;;
8281;SDS011;25606;42.686;23.136;2023-07-13T06:03:05;13.10;;;7.72;;
8281;SDS011;25606;42.686;23.136;2023-07-13T06:05:32;13.05;;;7.32;;
8281;SDS011;25606;42.686;23.136;2023-07-13T06:08:01;13.70;;;7.90;;
8281;SDS011;25606;42.686;23.136;2023-07-13T06:10:28;16.20;;;7.80;;
8281;SDS011;25606;42.686;23.136;2023-07-13T06:12:55;13.48;;;7.30;;
8281;SDS011;25606;42.686;23.136;2023-07-13T06:15:24;23.92;;;9.55;;
8281;SDS011;25606;42.686;23.136;2023-07-13T06:17:51;15.57;;;8.40;;
8281;SDS011;25606;42.686;23.136;2023-07-13T06:20:19;17.13;;;8.57;;
8281;SDS011;25606;42.686;23.136;2023-07-13T06:22:46;16.30;;;9.23;;
8281;SDS011;25606;42.686;23.136;2023-07-13T06:25:13;22.52;;;11.25;;
8281;SDS011;25606;42.686;23.136;2023-07-13T06:27:40;15.80;;;8.93;;
8281;SDS011;25606;42.686;23.136;2023-07-13T06:30:08;24.92;;;14.80;;
8281;SDS011;25606;42.686;23.136;2023-07-13T06:32:37;20.35;;;11.20;;
8281;SDS011;25606;42.686;23.136;2023-07-13T06:35:05;26.00;;;14.95;;
8281;SDS011;25606;42.686;23.136;2023-07-13T06:37:32;24.42;;;12.82;;
8281;SDS011;25606;42.686;23.136;2023-07-13T06:40:00;28.23;;;14.95;;
8281;SDS011;25606;42.686;23.136;2023-07-13T06:42:28;29.35;;;18.35;;
8281;SDS011;25606;42.686;23.136;2023-07-13T06:44:56;33.45;;;19.98;;
8281;SDS011;25606;42.686;23.136;2023-07-13T06:47:23;27.17;;;16.73;;
8281;SDS011;25606;42.686;23.136;2023-07-13T06:49:52;37.65;;;26.20;;
8281;SDS011;25606;42.686;23.136;2023-07-13T06:52:19;31.85;;;22.92;;
8281;SDS011;25606;42.686;23.136;2023-07-13T06:54:46;58.83;;;50.28;;
8281;SDS011;25606;42.686;23.136;2023-07-13T06:57:14;84.38;;;74.35;;
8281;SDS011;25606;42.686;23.136;2023-07-13T06:59:41;104.40;;;93.63;;
8281;SDS011;25606;42.686;23.136;2023-07-13T07:02:08;120.55;;;109.28;;
8281;SDS011;25606;42.686;23.136;2023-07-13T07:04:36;117.03;;;105.70;;
8281;SDS011;25606;42.686;23.136;2023-07-13T07:07:05;129.52;;;116.53;;
8281;SDS011;25606;42.686;23.136;2023-07-13T07:09:33;157.30;;;142.80;;
8281;SDS011;25606;42.686;23.136;2023-07-13T07:12:01;176.40;;;159.82;;
8281;SDS011;25606;42.686;23.136;2023-07-13T07:14:29;187.75;;;170.15;;
8281;SDS011;25606;42.686;23.136;2023-07-13T07:16:56;172.23;;;156.32;;
8281;SDS011;25606;42.686;23.136;2023-07-13T07:19:25;192.93;;;175.73;;
8281;SDS011;25606;42.686;23.136;2023-07-13T07:21:52;213.70;;;194.02;;
8281;SDS011;25606;42.686;23.136;2023-07-13T07:24:21;229.25;;;208.77;;
8281;SDS011;25606;42.686;23.136;2023-07-13T07:26:49;223.65;;;203.00;;
8281;SDS011;25606;42.686;23.136;2023-07-13T07:29:16;240.68;;;219.50;;
8281;SDS011;25606;42.686;23.136;2023-07-13T07:31:44;247.20;;;224.18;;
8281;SDS011;25606;42.686;23.136;2023-07-13T07:34:11;278.02;;;254.75;;
8281;SDS011;25606;42.686;23.136;2023-07-13T07:36:39;276.05;;;250.82;;
8281;SDS011;25606;42.686;23.136;2023-07-13T07:39:06;290.48;;;265.35;;
8281;SDS011;25606;42.686;23.136;2023-07-13T07:41:35;288.15;;;263.00;;
8281;SDS011;25606;42.686;23.136;2023-07-13T07:44:02;312.05;;;284.55;;
8281;SDS011;25606;42.686;23.136;2023-07-13T07:46:29;309.60;;;281.63;;
8281;SDS011;25606;42.686;23.136;2023-07-13T07:48:57;316.02;;;288.63;;
8281;SDS011;25606;42.686;23.136;2023-07-13T07:51:24;327.27;;;299.65;;
8281;SDS011;25606;42.686;23.136;2023-07-13T07:53:51;292.70;;;267.30;;
8281;SDS011;25606;42.686;23.136;2023-07-13T07:56:19;273.85;;;249.88;;
8281;SDS011;25606;42.686;23.136;2023-07-13T07:58:47;263.13;;;239.75;;
8281;SDS011;25606;42.686;23.136;2023-07-13T08:01:14;280.17;;;257.58;;
8281;SDS011;25606;42.686;23.136;2023-07-13T08:03:42;309.02;;;283.23;;
8281;SDS011;25606;42.686;23.136;2023-07-13T08:06:09;280.70;;;257.77;;
8281;SDS011;25606;42.686;23.136;2023-07-13T08:08:36;289.05;;;265.05;;
8281;SDS011;25606;42.686;23.136;2023-07-13T08:11:04;307.50;;;281.55;;
8281;SDS011;25606;42.686;23.136;2023-07-13T08:13:32;318.48;;;291.92;;
8281;SDS011;25606;42.686;23.136;2023-07-13T08:16:00;318.52;;;291.65;;
8281;SDS011;25606;42.686;23.136;2023-07-13T08:18:28;303.92;;;278.40;;
8281;SDS011;25606;42.686;23.136;2023-07-13T08:20:55;302.30;;;276.92;;
8281;SDS011;25606;42.686;23.136;2023-07-13T08:23:23;321.05;;;294.27;;
8281;SDS011;25606;42.686;23.136;2023-07-13T08:25:51;331.23;;;303.70;;
8281;SDS011;25606;42.686;23.136;2023-07-13T08:28:18;345.65;;;315.90;;
8281;SDS011;25606;42.686;23.136;2023-07-13T08:30:46;351.95;;;323.02;;
8281;SDS011;25606;42.686;23.136;2023-07-13T08:33:15;352.50;;;324.52;;
8281;SDS011;25606;42.686;23.136;2023-07-13T08:35:45;353.42;;;325.05;;
8281;SDS011;25606;42.686;23.136;2023-07-13T08:38:12;351.83;;;323.65;;
8281;SDS011;25606;42.686;23.136;2023-07-13T08:40:40;342.52;;;314.63;;
8281;SDS011;25606;42.686;23.136;2023-07-13T08:43:09;334.55;;;307.65;;
8281;SDS011;25606;42.686;23.136;2023-07-13T08:45:38;308.90;;;283.83;;
8281;SDS011;25606;42.686;23.136;2023-07-13T08:48:09;306.73;;;282.20;;
8281;SDS011;25606;42.686;23.136;2023-07-13T08:50:41;315.02;;;288.83;;
8281;SDS011;25606;42.686;23.136;2023-07-13T08:53:13;337.30;;;309.83;;
8281;SDS011;25606;42.686;23.136;2023-07-13T08:55:41;353.60;;;325.27;;
8281;SDS011;25606;42.686;23.136;2023-07-13T08:58:10;331.23;;;305.05;;
8281;SDS011;25606;42.686;23.136;2023-07-13T09:00:40;316.48;;;290.48;;
8281;SDS011;25606;42.686;23.136;2023-07-13T09:03:15;313.92;;;288.50;;
8281;SDS011;25606;42.686;23.136;2023-07-13T09:05:47;296.00;;;273.02;;
8281;SDS011;25606;42.686;23.136;2023-07-13T09:08:21;306.60;;;281.90;;
8281;SDS011;25606;42.686;23.136;2023-07-13T09:10:52;336.90;;;309.58;;
8281;SDS011;25606;42.686;23.136;2023-07-13T09:13:23;343.13;;;315.52;;
8281;SDS011;25606;42.686;23.136;2023-07-13T09:15:54;365.85;;;337.17;;
8281;SDS011;25606;42.686;23.136;2023-07-13T09:18:22;383.13;;;353.55;;
8281;SDS011;25606;42.686;23.136;2023-07-13T09:20:52;390.50;;;359.55;;
8281;SDS011;25606;42.686;23.136;2023-07-13T09:23:22;420.13;;;385.70;;
8281;SDS011;25606;42.686;23.136;2023-07-13T09:25:52;393.25;;;363.83;;
8281;SDS011;25606;42.686;23.136;2023-07-13T09:28:22;415.48;;;383.85;;
8281;SDS011;25606;42.686;23.136;2023-07-13T09:30:51;407.90;;;376.73;;
8281;SDS011;25606;42.686;23.136;2023-07-13T09:33:19;426.30;;;393.70;;
8281;SDS011;25606;42.686;23.136;2023-07-13T09:35:48;417.60;;;385.13;;
8281;SDS011;25606;42.686;23.136;2023-07-13T09:38:18;419.05;;;386.90;;
8281;SDS011;25606;42.686;23.136;2023-07-13T09:40:52;418.15;;;386.13;;
8281;SDS011;25606;42.686;23.136;2023-07-13T09:43:22;396.67;;;365.55;;
8281;SDS011;25606;42.686;23.136;2023-07-13T09:45:49;377.48;;;348.15;;
8281;SDS011;25606;42.686;23.136;2023-07-13T09:48:17;375.65;;;345.90;;
8281;SDS011;25606;42.686;23.136;2023-07-13T09:50:45;371.48;;;342.38;;
8281;SDS011;25606;42.686;23.136;2023-07-13T09:53:13;387.35;;;357.05;;
8281;SDS011;25606;42.686;23.136;2023-07-13T09:55:42;388.77;;;357.42;;
8281;SDS011;25606;42.686;23.136;2023-07-13T09:58:10;375.73;;;345.63;;
8281;SDS011;25606;42.686;23.136;2023-07-13T10:00:38;395.55;;;363.67;;
8281;SDS011;25606;42.686;23.136;2023-07-13T10:03:16;385.73;;;355.20;;
8281;SDS011;25606;42.686;23.136;2023-07-13T10:05:44;382.85;;;353.33;;
8281;SDS011;25606;42.686;23.136;2023-07-13T10:08:16;398.73;;;366.77;;
8281;SDS011;25606;42.686;23.136;2023-07-13T10:10:46;395.25;;;364.63;;
8281;SDS011;25606;42.686;23.136;2023-07-13T10:13:24;388.42;;;358.38;;
8281;SDS011;25606;42.686;23.136;2023-07-13T10:15:52;396.60;;;365.70;;
8281;SDS011;25606;42.686;23.136;2023-07-13T10:18:20;394.63;;;363.88;;
8281;SDS011;25606;42.686;23.136;2023-07-13T10:20:48;392.42;;;362.45;;
8281;SDS011;25606;42.686;23.136;2023-07-13T10:23:19;409.38;;;377.65;;
8281;SDS011;25606;42.686;23.136;2023-07-13T10:25:49;417.83;;;386.52;;
8281;SDS011;25606;42.686;23.136;2023-07-13T10:28:21;380.50;;;350.45;;
8281;SDS011;25606;42.686;23.136;2023-07-13T10:30:50;387.75;;;356.83;;
8281;SDS011;25606;42.686;23.136;2023-07-13T10:33:20;385.40;;;353.83;;
8281;SDS011;25606;42.686;23.136;2023-07-13T10:35:48;383.70;;;353.05;;
8281;SDS011;25606;42.686;23.136;2023-07-13T10:38:19;391.15;;;359.95;;
8281;SDS011;25606;42.686;23.136;2023-07-13T10:40:51;406.88;;;374.50;;
8281;SDS011;25606;42.686;23.136;2023-07-13T10:43:22;393.13;;;362.15;;
8281;SDS011;25606;42.686;23.136;2023-07-13T10:45:52;400.70;;;369.95;;
8281;SDS011;25606;42.686;23.136;2023-07-13T10:48:20;396.20;;;365.15;;
8281;SDS011;25606;42.686;23.136;2023-07-13T10:50:49;403.83;;;373.30;;
8281;SDS011;25606;42.686;23.136;2023-07-13T10:53:18;404.15;;;373.83;;
8281;SDS011;25606;42.686;23.136;2023-07-13T10:55:56;395.95;;;365.35;;
8281;SDS011;25606;42.686;23.136;2023-07-13T10:58:28;394.73;;;364.52;;
8281;SDS011;25606;42.686;23.136;2023-07-13T11:01:03;365.58;;;338.20;;
8281;SDS011;25606;42.686;23.136;2023-07-13T11:03:30;352.80;;;325.65;;
8281;SDS011;25606;42.686;23.136;2023-07-13T11:06:06;362.65;;;334.50;;
8281;SDS011;25606;42.686;23.136;2023-07-13T11:08:36;349.08;;;322.92;;
8281;SDS011;25606;42.686;23.136;2023-07-13T11:11:05;347.27;;;320.65;;
8281;SDS011;25606;42.686;23.136;2023-07-13T11:13:57;345.92;;;319.27;;
8281;SDS011;25606;42.686;23.136;2023-07-13T11:16:34;350.48;;;322.98;;
8281;SDS011;25606;42.686;23.136;2023-07-13T11:22:10;339.52;;;313.08;;
8281;SDS011;25606;42.686;23.136;2023-07-13T11:24:56;337.65;;;311.50;;
8281;SDS011;25606;42.686;23.136;2023-07-13T11:27:38;362.40;;;333.23;;
8281;SDS011;25606;42.686;23.136;2023-07-13T11:30:18;372.40;;;343.63;;
8281;SDS011;25606;42.686;23.136;2023-07-13T11:32:50;380.85;;;350.23;;
8281;SDS011;25606;42.686;23.136;2023-07-13T11:35:19;403.58;;;372.73;;
8281;SDS011;25606;42.686;23.136;2023-07-13T11:37:49;403.38;;;371.75;;
8281;SDS011;25606;42.686;23.136;2023-07-13T11:40:16;412.90;;;381.88;;
8281;SDS011;25606;42.686;23.136;2023-07-13T11:42:43;424.70;;;392.08;;
8281;SDS011;25606;42.686;23.136;2023-07-13T11:45:21;420.60;;;389.00;;
8281;SDS011;25606;42.686;23.136;2023-07-13T11:47:49;415.65;;;384.50;;
8281;SDS011;25606;42.686;23.136;2023-07-13T11:50:17;422.95;;;391.08;;
8281;SDS011;25606;42.686;23.136;2023-07-13T11:52:45;429.33;;;396.33;;
8281;SDS011;25606;42.686;23.136;2023-07-13T11:55:14;425.45;;;393.10;;
8281;SDS011;25606;42.686;23.136;2023-07-13T11:57:42;416.02;;;385.45;;
8281;SDS011;25606;42.686;23.136;2023-07-13T12:00:12;432.10;;;398.73;;
8281;SDS011;25606;42.686;23.136;2023-07-13T12:02:42;429.98;;;397.52;;
8281;SDS011;25606;42.686;23.136;2023-07-13T12:05:11;441.10;;;407.77;;
8281;SDS011;25606;42.686;23.136;2023-07-13T12:07:39;444.55;;;411.58;;
8281;SDS011;25606;42.686;23.136;2023-07-13T12:10:13;431.52;;;399.35;;
8281;SDS011;25606;42.686;23.136;2023-07-13T12:12:46;420.67;;;389.58;;
8281;SDS011;25606;42.686;23.136;2023-07-13T12:15:13;433.05;;;400.70;;
8281;SDS011;25606;42.686;23.136;2023-07-13T12:17:42;446.15;;;412.45;;
8281;SDS011;25606;42.686;23.136;2023-07-13T12:20:17;454.65;;;419.90;;
8281;SDS011;25606;42.686;23.136;2023-07-13T12:22:46;436.58;;;403.52;;
8281;SDS011;25606;42.686;23.136;2023-07-13T12:25:14;424.48;;;392.65;;
8281;SDS011;25606;42.686;23.136;2023-07-13T12:27:42;423.38;;;391.00;;
8281;SDS011;25606;42.686;23.136;2023-07-13T12:30:26;445.25;;;410.83;;
8281;SDS011;25606;42.686;23.136;2023-07-13T12:32:57;431.27;;;399.58;;
8281;SDS011;25606;42.686;23.136;2023-07-13T12:35:25;439.63;;;406.27;;
8281;SDS011;25606;42.686;23.136;2023-07-13T12:37:56;452.33;;;418.00;;
8281;SDS011;25606;42.686;23.136;2023-07-13T12:40:26;441.70;;;409.05;;
8281;SDS011;25606;42.686;23.136;2023-07-13T12:42:55;441.73;;;408.95;;
8281;SDS011;25606;42.686;23.136;2023-07-13T12:45:23;455.60;;;420.77;;
8281;SDS011;25606;42.686;23.136;2023-07-13T12:47:53;424.95;;;393.35;;
8281;SDS011;25606;42.686;23.136;2023-07-13T12:50:23;443.88;;;409.95;;
8281;SDS011;25606;42.686;23.136;2023-07-13T12:52:51;437.88;;;404.70;;
8281;SDS011;25606;42.686;23.136;2023-07-13T12:55:19;440.45;;;407.52;;
8281;SDS011;25606;42.686;23.136;2023-07-13T12:57:48;466.75;;;431.15;;
8281;SDS011;25606;42.686;23.136;2023-07-13T13:00:23;472.08;;;437.15;;
8281;SDS011;25606;42.686;23.136;2023-07-13T13:02:52;466.98;;;432.52;;
8281;SDS011;25606;42.686;23.136;2023-07-13T13:05:24;448.45;;;413.77;;
8281;SDS011;25606;42.686;23.136;2023-07-13T13:07:53;441.80;;;408.77;;
8281;SDS011;25606;42.686;23.136;2023-07-13T13:10:22;439.80;;;407.10;;
8281;SDS011;25606;42.686;23.136;2023-07-13T13:12:51;455.38;;;421.13;;
8281;SDS011;25606;42.686;23.136;2023-07-13T13:15:19;434.23;;;400.75;;
8281;SDS011;25606;42.686;23.136;2023-07-13T13:17:47;423.13;;;391.58;;
8281;SDS011;25606;42.686;23.136;2023-07-13T13:20:15;446.55;;;413.63;;
8281;SDS011;25606;42.686;23.136;2023-07-13T13:22:44;422.80;;;391.05;;
8281;SDS011;25606;42.686;23.136;2023-07-13T13:25:11;444.50;;;412.52;;
8281;SDS011;25606;42.686;23.136;2023-07-13T13:27:39;444.48;;;411.35;;
8281;SDS011;25606;42.686;23.136;2023-07-13T13:30:10;430.77;;;398.38;;
8281;SDS011;25606;42.686;23.136;2023-07-13T13:32:38;447.33;;;413.88;;
8281;SDS011;25606;42.686;23.136;2023-07-13T13:35:07;456.60;;;423.13;;
8281;SDS011;25606;42.686;23.136;2023-07-13T13:37:39;467.23;;;432.92;;
8281;SDS011;25606;42.686;23.136;2023-07-13T13:42:43;460.85;;;427.65;;
8281;SDS011;25606;42.686;23.136;2023-07-13T13:45:10;479.52;;;445.45;;
8281;SDS011;25606;42.686;23.136;2023-07-13T13:47:38;469.10;;;434.35;;
8281;SDS011;25606;42.686;23.136;2023-07-13T13:50:11;454.08;;;421.15;;
8281;SDS011;25606;42.686;23.136;2023-07-13T13:52:39;437.23;;;405.13;;
8281;SDS011;25606;42.686;23.136;2023-07-13T13:55:11;452.90;;;420.15;;
8281;SDS011;25606;42.686;23.136;2023-07-13T13:57:38;440.55;;;408.42;;
8281;SDS011;25606;42.686;23.136;2023-07-13T14:00:08;438.80;;;406.95;;
8281;SDS011;25606;42.686;23.136;2023-07-13T14:02:36;432.52;;;401.85;;
8281;SDS011;25606;42.686;23.136;2023-07-13T14:05:05;438.77;;;405.90;;
8281;SDS011;25606;42.686;23.136;2023-07-13T14:07:34;475.90;;;441.17;;
8281;SDS011;25606;42.686;23.136;2023-07-13T14:10:01;463.00;;;429.00;;
8281;SDS011;25606;42.686;23.136;2023-07-13T14:12:29;486.33;;;451.50;;
8281;SDS011;25606;42.686;23.136;2023-07-13T14:14:56;471.40;;;437.25;;
8281;SDS011;25606;42.686;23.136;2023-07-13T14:17:26;466.17;;;431.67;;
8281;SDS011;25606;42.686;23.136;2023-07-13T14:19:54;465.35;;;432.10;;
8281;SDS011;25606;42.686;23.136;2023-07-13T14:22:23;487.05;;;452.73;;
8281;SDS011;25606;42.686;23.136;2023-07-13T14:24:51;457.17;;;424.38;;
8281;SDS011;25606;42.686;23.136;2023-07-13T14:27:18;488.80;;;454.70;;
8281;SDS011;25606;42.686;23.136;2023-07-13T14:29:46;487.27;;;454.13;;
8281;SDS011;25606;42.686;23.136;2023-07-13T14:32:13;510.95;;;476.08;;
8281;SDS011;25606;42.686;23.136;2023-07-13T14:34:42;493.40;;;459.35;;